This is the latest recevied weather packets stored in our database for station/object SV1JCZ-13. If no packets are shown the sender has not sent any weather packets the latest 10 day(s).
| Time | Temp. | Humidity | Pressure | Rain* | Wind** | Luminosity | Snow |
|---|---|---|---|---|---|---|---|
| 1777565355 | 18.33° C | 67% | 0 hPa | 0 mm | - | - | - |
| 1777563555 | 19.44° C | 64% | 0 hPa | 0 mm | - | - | - |
| 1777563195 | 19.44° C | 63% | 0 hPa | 0 mm | - | - | - |
| 1777562835 | 19.44° C | 62% | 0 hPa | 0 mm | - | - | - |
| 1777562475 | 20° C | 62% | 0 hPa | 0 mm | - | - | - |
| 1777559235 | 21.67° C | 59% | 0 hPa | 0 mm | - | - | - |
| 1777558155 | 21.67° C | 59% | 0 hPa | 0 mm | - | - | - |
| 1777556355 | 20.56° C | 62% | 0 hPa | 0 mm | - | - | - |
| 1777555995 | 20.56° C | 62% | 0 hPa | 0 mm | - | - | - |
| 1777554915 | 21.11° C | 60% | 0 hPa | 0 mm | - | - | - |
| 1777551675 | 20.56° C | 61% | 0 hPa | 0 mm | - | - | - |
| 1777551315 | 20.56° C | 61% | 0 hPa | 0 mm | - | - | - |
| 1777550235 | 20.56° C | 59% | 0 hPa | 0 mm | - | - | - |
| 1777548435 | 20° C | 61% | 0 hPa | 0 mm | - | - | - |
| 1777545555 | 19.44° C | 61% | 0 hPa | 0 mm | - | - | - |
| 1777545437 | 19.44° C | 60% | 0 hPa | 0 mm | - | - | - |
| 1777545195 | 19.44° C | 63% | 0 hPa | 0 mm | - | - | - |
| 1777544835 | 19.44° C | 63% | 0 hPa | 0 mm | - | - | - |
| 1777544475 | 19.44° C | 64% | 0 hPa | 0 mm | - | - | - |
| 1777544237 | 18.89° C | 63% | 0 hPa | 0 mm | - | - | - |
| 1777544115 | 18.89° C | 64% | 0 hPa | 0 mm | - | - | - |
| 1777543755 | 18.89° C | 64% | 0 hPa | 0 mm | - | - | - |
| 1777543035 | 18.89° C | 64% | 0 hPa | 0 mm | - | - | - |
| 1777542675 | 18.89° C | 65% | 0 hPa | 0 mm | - | - | - |
| 1777542315 | 18.89° C | 65% | 0 hPa | 0 mm | - | - | - |
* Rain latest hour (hover to see other rain measurements)
** Current wind speed in m/s (hover to see current wind gust speed)